Time;durP1;ratioP1;P1;durP2;ratioP2;P2;SDS_P1;SDS_P2;PMS_P1;PMS_P2;Temp;Humidity;BMP_temperature;BMP_pressure;BME280_temperature;BME280_humidity;BME280_pressure;Samples;Min_cycle;Max_cycle;Signal;HPM_P1;HPM_P2
2021/11/29 06:08:27;;;;;;;68.63;20.65;;;;;;;0.06;83.42;96719.59;4915701;24;20429;-50
2021/11/29 06:10:52;;;;;;;65.85;20.30;;;;;;;0.36;82.90;96722.38;4844488;29;20034;-51
2021/11/29 06:13:18;;;;;;;71.93;20.92;;;;;;;0.19;84.04;96727.56;4854200;29;20078;-49
2021/11/29 06:15:44;;;;;;;76.15;21.20;;;;;;;0.34;83.46;96725.94;4855121;29;20504;-48
2021/11/29 06:18:09;;;;;;;67.28;21.65;;;;;;;0.52;82.54;96734.47;4879838;29;20033;-51
2021/11/29 06:20:34;;;;;;;74.57;20.60;;;;;;;0.23;84.32;96729.88;4876941;29;20481;-52
2021/11/29 06:23:00;;;;;;;72.05;21.20;;;;;;;0.08;83.84;96735.81;4888083;29;20035;-50
2021/11/29 06:25:25;;;;;;;68.28;19.80;;;;;;;0.26;83.67;96749.53;4898942;29;20450;-53
2021/11/29 06:27:51;;;;;;;66.88;20.58;;;;;;;0.36;83.35;96744.75;4882073;29;20385;-50
2021/11/29 06:30:17;;;;;;;61.88;20.27;;;;;;;0.32;83.67;96754.38;4897772;29;20519;-50
2021/11/29 06:32:43;;;;;;;74.07;20.40;;;;;;;0.11;84.38;96752.91;4880874;29;20025;-53
2021/11/29 06:35:08;;;;;;;65.97;20.60;;;;;;;0.05;84.57;96760.94;4866957;29;20081;-53
2021/11/29 06:37:34;;;;;;;71.30;22.27;;;;;;;0.07;85.04;96753.94;4898732;29;20396;-54
2021/11/29 06:40:00;;;;;;;64.30;20.90;;;;;;;0.30;83.79;96761.34;4898758;29;20048;-49
2021/11/29 06:42:25;;;;;;;88.30;25.85;;;;;;;0.26;83.91;96764.19;4869001;29;20033;-50
2021/11/29 06:44:51;;;;;;;79.20;22.60;;;;;;;0.27;84.13;96765.84;4859086;29;20037;-51
2021/11/29 06:47:16;;;;;;;79.85;23.30;;;;;;;0.21;84.23;96772.16;4861422;29;20052;-49
2021/11/29 06:49:41;;;;;;;74.00;21.65;;;;;;;0.35;84.08;96784.34;4863382;29;20062;-48
2021/11/29 06:52:07;;;;;;;82.22;25.98;;;;;;;0.26;84.98;96779.66;4864770;29;20101;-50
2021/11/29 06:54:35;;;;;;;89.55;27.40;;;;;;;0.16;84.65;96777.53;4870106;29;20025;-49
2021/11/29 06:57:01;;;;;;;69.13;21.13;;;;;;;0.21;84.95;96791.03;4879659;29;20397;-49
2021/11/29 06:59:27;;;;;;;74.03;22.30;;;;;;;0.35;84.64;96792.09;4874993;29;20033;-49
2021/11/29 07:01:52;;;;;;;87.03;28.83;;;;;;;0.29;85.03;96800.97;4880418;29;20024;-54
2021/11/29 07:04:19;;;;;;;85.30;25.73;;;;;;;0.33;85.02;96801.66;4886074;29;20033;-51
2021/11/29 07:06:45;;;;;;;69.20;19.92;;;;;;;0.41;84.16;96804.66;4880446;29;20029;-50
2021/11/29 07:09:11;;;;;;;70.82;22.95;;;;;;;0.40;84.39;96803.00;4880728;29;20150;-52
2021/11/29 07:11:36;;;;;;;75.20;21.30;;;;;;;0.63;83.10;96800.09;4880824;29;20028;-50
2021/11/29 07:14:02;;;;;;;75.40;22.30;;;;;;;0.65;83.02;96818.06;4877518;29;20037;-50
2021/11/29 07:16:28;;;;;;;72.45;21.05;;;;;;;0.66;83.17;96820.59;4879172;29;20118;-50
2021/11/29 07:18:53;;;;;;;67.88;20.83;;;;;;;0.77;84.21;96832.09;4892141;29;20472;-48
2021/11/29 07:21:18;;;;;;;73.05;20.38;;;;;;;0.67;83.60;96817.09;4897791;29;20041;-51
2021/11/29 07:23:44;;;;;;;73.20;21.10;;;;;;;0.94;82.30;96829.50;4894005;29;20036;-48
2021/11/29 07:26:09;;;;;;;66.65;20.13;;;;;;;1.03;80.69;96829.00;4860769;29;20497;-49
2021/11/29 07:28:34;;;;;;;69.00;20.27;;;;;;;0.94;80.71;96834.66;4875246;29;20037;-53
2021/11/29 07:31:00;;;;;;;70.43;20.25;;;;;;;1.03;80.31;96844.50;4879068;29;20029;-54
2021/11/29 07:33:25;;;;;;;75.22;19.98;;;;;;;1.00;80.81;96849.84;4878882;29;20025;-53
2021/11/29 07:35:50;;;;;;;74.53;20.95;;;;;;;1.15;80.33;96846.44;4877407;29;20116;-51
2021/11/29 07:38:16;;;;;;;62.28;17.17;;;;;;;0.91;80.30;96853.72;4877845;29;20445;-53
2021/11/29 07:40:41;;;;;;;64.35;19.13;;;;;;;0.99;79.81;96849.91;4878889;29;20037;-52
2021/11/29 07:43:08;;;;;;;62.22;18.85;;;;;;;0.97;80.28;96855.16;4878889;29;20076;-53
2021/11/29 07:45:34;;;;;;;62.38;20.48;;;;;;;0.96;80.27;96863.78;4877229;29;20057;-50
2021/11/29 07:47:59;;;;;;;61.20;18.73;;;;;;;0.93;80.05;96856.22;4876969;29;20063;-53
2021/11/29 07:50:24;;;;;;;69.28;21.27;;;;;;;0.79;81.24;96867.25;4877828;29;20552;-50
2021/11/29 07:52:50;;;;;;;68.38;20.45;;;;;;;0.70;81.48;96868.53;4878891;29;20025;-53
2021/11/29 07:55:18;;;;;;;67.80;20.15;;;;;;;0.95;80.14;96875.03;4878339;29;20027;-50
2021/11/29 07:57:44;;;;;;;64.68;18.95;;;;;;;0.96;80.00;96881.88;4877221;29;20036;-51
2021/11/29 08:00:12;;;;;;;54.00;18.13;;;;;;;0.84;80.01;96885.09;4878865;29;20405;-51
2021/11/29 08:02:37;;;;;;;60.63;16.92;;;;;;;0.89;79.66;96885.69;4879382;29;20440;-52
2021/11/29 08:05:03;;;;;;;59.40;17.90;;;;;;;0.83;79.31;96896.34;4878430;29;20057;-52
2021/11/29 08:07:28;;;;;;;57.63;16.33;;;;;;;0.82;79.96;96886.91;4877482;29;20041;-54
2021/11/29 08:09:54;;;;;;;55.63;17.77;;;;;;;0.81;79.36;96903.31;4872544;29;20405;-51
2021/11/29 08:12:19;;;;;;;58.22;16.85;;;;;;;0.86;78.87;96898.72;4860208;29;20401;-50
2021/11/29 08:14:44;;;;;;;57.40;17.33;;;;;;;0.82;78.95;96903.22;4859990;29;20025;-52
2021/11/29 08:17:10;;;;;;;54.88;16.38;;;;;;;1.00;78.66;96893.72;4860912;29;20032;-53
2021/11/29 08:19:35;;;;;;;58.72;17.98;;;;;;;0.84;79.63;96895.41;4860134;29;20025;-52
2021/11/29 08:22:01;;;;;;;58.85;18.50;;;;;;;0.77;79.91;96900.03;4877223;29;20043;-52
2021/11/29 08:24:26;;;;;;;57.63;17.73;;;;;;;0.98;79.24;96918.78;4878694;29;20087;-55
2021/11/29 08:26:51;;;;;;;59.63;18.75;;;;;;;1.12;79.11;96918.09;4876996;29;20485;-50
2021/11/29 08:29:17;;;;;;;63.17;19.55;;;;;;;1.17;78.67;96909.19;4878424;29;20029;-52
2021/11/29 08:31:42;;;;;;;58.92;17.77;;;;;;;0.88;79.72;96908.06;4878550;29;20029;-51
2021/11/29 08:34:07;;;;;;;62.25;18.33;;;;;;;1.08;79.38;96914.81;4877045;29;20386;-54
2021/11/29 08:36:34;;;;;;;66.70;21.05;;;;;;;1.01;80.36;96913.47;4877071;29;20021;-55
2021/11/29 08:38:59;;;;;;;64.75;20.40;;;;;;;1.10;80.07;96918.19;4871147;29;20116;-53
2021/11/29 08:41:25;;;;;;;57.05;16.25;;;;;;;1.12;79.61;96915.50;4878651;29;20025;-55
2021/11/29 08:43:50;;;;;;;64.93;18.90;;;;;;;1.13;79.94;96923.16;4878342;29;20029;-52
2021/11/29 08:46:16;;;;;;;85.40;31.70;;;;;;;1.09;81.08;96926.81;4878426;29;20036;-52
2021/11/29 08:48:41;;;;;;;74.90;23.15;;;;;;;0.95;80.69;96926.69;4877282;29;20044;-49
2021/11/29 08:51:06;;;;;;;65.85;21.88;;;;;;;1.12;80.44;96937.00;4866486;29;20051;-55
2021/11/29 08:53:32;;;;;;;67.68;21.60;;;;;;;1.26;80.28;96943.19;4860170;29;20029;-55
2021/11/29 08:55:57;;;;;;;70.97;21.15;;;;;;;1.39;79.50;96944.25;4860714;29;20030;-52
2021/11/29 08:58:23;;;;;;;66.75;20.30;;;;;;;1.57;78.72;96945.84;4861217;29;20033;-55
2021/11/29 09:00:49;;;;;;;77.03;21.67;;;;;;;1.54;78.93;96953.78;4865041;29;20386;-55
2021/11/29 09:03:15;;;;;;;66.90;20.08;;;;;;;1.39;79.67;96955.41;4872107;29;20037;-50
2021/11/29 09:05:42;;;;;;;64.40;19.02;;;;;;;1.27;79.34;96961.19;4877428;29;20039;-51
2021/11/29 09:08:08;;;;;;;65.60;20.10;;;;;;;1.21;80.25;96963.28;4877740;29;20112;-49
2021/11/29 09:10:33;;;;;;;63.83;19.42;;;;;;;1.35;79.65;96959.06;4862875;29;20055;-55
2021/11/29 09:12:58;;;;;;;62.00;19.80;;;;;;;1.48;79.50;96968.75;4862615;29;20394;-55
2021/11/29 09:15:24;;;;;;;62.80;18.75;;;;;;;1.33;79.80;96965.22;4860846;29;20077;-52
2021/11/29 09:17:49;;;;;;;63.70;18.90;;;;;;;1.37;79.53;96969.31;4862278;29;20072;-50
2021/11/29 09:20:17;;;;;;;56.22;18.33;;;;;;;1.59;79.19;96976.81;4863693;29;20033;-51
2021/11/29 09:22:42;;;;;;;50.95;17.30;;;;;;;1.77;78.15;96980.16;4861819;29;20036;-52
2021/11/29 09:25:08;;;;;;;60.95;18.50;;;;;;;1.96;77.89;96986.06;4862828;29;20034;-49
2021/11/29 09:27:34;;;;;;;55.28;15.98;;;;;;;2.18;76.09;96996.06;4863534;29;20033;-53
2021/11/29 09:29:59;;;;;;;54.75;16.08;;;;;;;2.21;75.60;96990.72;4855400;29;20451;-51
2021/11/29 09:32:24;;;;;;;48.70;16.25;;;;;;;2.16;76.11;96990.13;4881398;29;20037;-51
2021/11/29 09:34:50;;;;;;;55.63;15.50;;;;;;;2.16;74.64;96995.31;4881699;29;20104;-54
2021/11/29 09:37:16;;;;;;;54.30;14.30;;;;;;;1.66;76.15;96994.50;4881628;29;20527;-49
2021/11/29 09:39:41;;;;;;;48.05;15.25;;;;;;;1.84;76.25;96994.44;4880572;29;20057;-50
2021/11/29 09:42:07;;;;;;;51.53;16.67;;;;;;;1.98;75.16;96994.53;4881114;29;20073;-51
2021/11/29 09:44:32;;;;;;;46.78;14.38;;;;;;;2.26;74.42;96999.06;4880857;29;20086;-49
2021/11/29 09:46:58;;;;;;;55.95;16.92;;;;;;;1.88;75.00;97003.72;4880412;29;20032;-49
2021/11/29 09:49:28;;;;;;;43.58;13.02;;;;;;;2.31;73.67;97001.41;4878913;29;20030;-49
2021/11/29 09:51:53;;;;;;;45.40;14.88;;;;;;;2.14;73.56;97005.75;4864601;29;20085;-50
2021/11/29 09:54:19;;;;;;;46.30;14.10;;;;;;;2.23;73.50;97008.75;4863157;29;20441;-51
2021/11/29 09:56:44;;;;;;;40.33;13.68;;;;;;;2.08;73.41;97011.25;4880359;29;20029;-52
2021/11/29 09:59:10;;;;;;;43.75;13.23;;;;;;;1.83;74.20;97016.06;4878746;29;20463;-53
2021/11/29 10:01:35;;;;;;;43.38;14.07;;;;;;;1.91;73.24;97024.22;4880230;29;20433;-51
2021/11/29 10:04:01;;;;;;;41.03;11.82;;;;;;;1.98;73.43;97019.56;4880029;29;20056;-53
2021/11/29 10:06:27;;;;;;;36.47;12.13;;;;;;;2.05;74.06;97026.91;4880142;29;20084;-51
2021/11/29 10:08:53;;;;;;;42.20;13.25;;;;;;;1.98;73.17;97017.81;4880304;29;20029;-49
2021/11/29 10:11:18;;;;;;;46.25;13.10;;;;;;;1.93;72.76;97022.41;4878702;29;20401;-51
2021/11/29 10:13:45;;;;;;;41.15;12.02;;;;;;;1.79;72.86;97027.44;4863288;29;20108;-52
2021/11/29 10:16:10;;;;;;;42.10;13.50;;;;;;;1.67;72.33;97016.00;4879799;29;20033;-49
2021/11/29 10:18:35;;;;;;;44.15;13.13;;;;;;;1.69;72.95;97028.84;4878776;29;20473;-51
2021/11/29 10:21:06;;;;;;;39.50;12.77;;;;;;;1.71;74.12;97019.25;4877179;29;20029;-54
2021/11/29 10:23:37;;;;;;;41.85;12.52;;;;;;;1.76;73.76;97023.28;4865662;29;20033;-53
2021/11/29 10:26:08;;;;;;;44.90;13.45;;;;;;;1.84;73.65;97021.13;4879847;29;20049;-54
2021/11/29 10:28:38;;;;;;;36.47;12.25;;;;;;;2.01;72.89;97022.00;4878624;29;20033;-53
2021/11/29 10:31:19;;;;;;;41.72;12.27;;;;;;;1.89;73.16;97038.97;4877445;29;20441;-50
2021/11/29 10:33:44;;;;;;;40.47;12.43;;;;;;;1.81;72.92;97033.38;4879644;29;20493;-51
2021/11/29 10:36:10;;;;;;;45.05;14.32;;;;;;;1.93;72.67;97030.16;4879528;29;20021;-52
2021/11/29 10:38:37;;;;;;;32.90;10.43;;;;;;;1.90;71.76;97035.50;4878761;29;20043;-49
2021/11/29 10:41:03;;;;;;;36.42;11.38;;;;;;;2.05;71.76;97028.69;4878495;29;20426;-50
2021/11/29 10:43:42;;;;;;;35.65;10.68;;;;;;;1.88;71.49;97029.56;4877620;29;20032;-54
2021/11/29 10:46:18;;;;;;;30.17;11.38;;;;;;;1.92;71.69;97033.66;4878081;29;20021;-55
2021/11/29 10:48:44;;;;;;;33.28;10.93;;;;;;;1.88;71.90;97050.25;4879435;29;20033;-52
2021/11/29 10:51:11;;;;;;;39.33;12.95;;;;;;;1.93;71.34;97037.94;4879389;29;20033;-56
2021/11/29 10:53:48;;;;;;;39.58;11.98;;;;;;;2.04;71.50;97051.13;4877173;29;20100;-52
2021/11/29 10:56:13;;;;;;;43.22;11.82;;;;;;;2.36;71.01;97062.34;4879369;29;20053;-53
2021/11/29 10:58:44;;;;;;;34.97;11.43;;;;;;;2.00;71.37;97059.97;4879250;29;20033;-54
2021/11/29 11:01:10;;;;;;;34.95;12.40;;;;;;;2.22;69.81;97054.47;4879904;29;20029;-49
2021/11/29 11:03:55;;;;;;;35.53;11.63;;;;;;;2.37;69.19;97055.41;4877847;29;20124;-51
2021/11/29 11:06:31;;;;;;;41.58;12.68;;;;;;;2.51;69.42;97055.50;4879112;29;20498;-52
2021/11/29 11:08:56;;;;;;;41.58;11.90;;;;;;;2.79;68.38;97064.34;4878511;29;20039;-49
2021/11/29 11:11:30;;;;;;;38.10;12.20;;;;;;;2.63;69.20;97054.00;4877990;29;20033;-52
2021/11/29 11:14:01;;;;;;;35.67;11.07;;;;;;;2.59;69.98;97066.28;4877148;29;20033;-53
2021/11/29 11:16:41;;;;;;;33.50;11.05;;;;;;;3.09;68.10;97061.78;4878758;29;20040;-53
2021/11/29 11:19:30;;;;;;;36.63;11.93;;;;;;;2.61;69.02;97059.28;4879255;29;20029;-49
2021/11/29 11:22:12;;;;;;;41.33;11.60;;;;;;;2.55;69.25;97071.72;4876218;29;20037;-52
2021/11/29 11:24:38;;;;;;;;;;;;;;;2.61;69.82;97061.88;4877375;29;20029;-51
2021/11/29 11:27:04;;;;;;;31.80;11.05;;;;;;;2.79;68.67;97069.53;4875018;29;19922;-50
2021/11/29 11:29:35;;;;;;;32.20;10.55;;;;;;;2.68;68.60;97059.75;4878704;29;20033;-52
2021/11/29 11:32:34;;;;;;;38.88;11.68;;;;;;;2.65;68.99;97061.66;4879848;29;20040;-51
2021/11/29 11:35:02;;;;;;;34.58;11.50;;;;;;;2.50;69.83;97068.53;4876940;29;20077;-48
2021/11/29 11:37:30;;;;;;;31.58;11.05;;;;;;;2.57;69.34;97075.88;4860695;29;20049;-51
2021/11/29 11:39:56;;;;;;;31.60;10.52;;;;;;;2.53;68.77;97070.94;4860030;29;20029;-52
2021/11/29 11:42:21;;;;;;;38.28;10.98;;;;;;;2.59;69.14;97066.28;4859945;29;20039;-47
2021/11/29 11:44:47;;;;;;;32.40;10.93;;;;;;;2.58;68.63;97063.75;4860408;29;20116;-48
2021/11/29 11:47:12;;;;;;;32.10;10.85;;;;;;;2.61;69.45;97067.03;4876703;29;20044;-49
2021/11/29 11:49:42;;;;;;;37.50;11.07;;;;;;;2.59;69.79;97075.81;4878365;29;20056;-48
2021/11/29 11:52:10;;;;;;;35.70;12.15;;;;;;;2.54;68.94;97076.03;4877492;29;20678;-48
2021/11/29 11:54:36;;;;;;;33.80;10.73;;;;;;;2.77;67.96;97074.78;4868782;29;20040;-52
2021/11/29 11:57:03;;;;;;;34.65;11.10;;;;;;;2.65;68.21;97083.25;4859583;29;20398;-50
2021/11/29 11:59:35;;;;;;;31.27;10.05;;;;;;;2.75;68.71;97084.41;4859382;29;20045;-53
2021/11/29 12:02:00;;;;;;;28.38;10.55;;;;;;;2.64;69.33;97088.47;4843931;29;20034;-51
2021/11/29 12:04:27;;;;;;;34.25;11.15;;;;;;;2.55;68.77;97087.25;4861518;29;20029;-49
2021/11/29 12:06:53;;;;;;;30.65;10.88;;;;;;;2.70;68.03;97090.75;4874676;29;20112;-49
2021/11/29 12:09:26;;;;;;;28.10;9.85;;;;;;;2.75;68.12;97096.50;4859701;29;20038;-51
2021/11/29 12:11:58;;;;;;;32.38;11.70;;;;;;;2.58;67.87;97087.06;4858475;29;20037;-51
2021/11/29 12:14:31;;;;;;;33.30;10.77;;;;;;;2.77;67.81;97092.91;4859947;29;20084;-52
2021/11/29 12:17:00;;;;;;;25.73;9.57;;;;;;;2.98;66.93;97085.69;4859495;29;20492;-54
2021/11/29 12:19:40;;;;;;;33.85;11.20;;;;;;;2.71;67.01;97100.19;4859600;29;20562;-52
2021/11/29 12:22:26;;;;;;;29.75;10.57;;;;;;;2.45;68.64;97106.78;4859447;29;20494;-51
2021/11/29 12:24:59;;;;;;;30.27;10.65;;;;;;;2.92;66.84;97109.34;4860328;29;20154;-51
2021/11/29 12:27:52;;;;;;;31.15;10.95;;;;;;;2.99;66.96;97109.84;4872122;29;20040;-54
2021/11/29 12:30:43;;;;;;;29.55;10.65;;;;;;;2.77;66.81;97112.78;4858406;29;20513;-52
2021/11/29 12:33:11;;;;;;;35.72;11.95;;;;;;;2.32;68.37;97127.28;4859693;29;20038;-51
2021/11/29 12:36:00;;;;;;;30.58;10.52;;;;;;;2.28;68.67;97123.19;4859810;29;20070;-49
2021/11/29 12:38:26;;;;;;;33.65;10.38;;;;;;;2.13;68.66;97137.75;4877491;29;20033;-50
2021/11/29 12:40:55;;;;;;;31.38;10.07;;;;;;;2.10;68.97;97128.41;4877885;29;20076;-53
2021/11/29 12:43:36;;;;;;;32.72;11.75;;;;;;;2.21;69.39;97130.44;4881467;29;20025;-50
2021/11/29 12:46:24;;;;;;;35.63;11.10;;;;;;;2.13;69.23;97132.56;4881724;29;20029;-50
2021/11/29 12:48:50;;;;;;;28.90;9.32;;;;;;;2.04;69.84;97140.81;4879790;29;20041;-51
2021/11/29 12:51:16;;;;;;;31.50;9.30;;;;;;;1.95;69.66;97134.34;4881880;29;20029;-51
2021/11/29 12:53:42;;;;;;;31.15;10.75;;;;;;;1.80;70.54;97135.97;4864571;29;20120;-51
2021/11/29 12:56:20;;;;;;;51.20;19.38;;;;;;;1.60;71.14;97161.97;4879913;29;20037;-50
2021/11/29 12:58:53;;;;;;;44.90;17.42;;;;;;;1.77;71.06;97159.38;4863145;29;20029;-52
2021/11/29 13:01:18;;;;;;;173.55;55.08;;;;;;;1.95;70.46;97154.22;4862946;29;20029;-53
2021/11/29 13:03:50;;;;;;;44.03;16.05;;;;;;;2.07;70.68;97157.00;4862681;29;20028;-51
2021/11/29 13:06:15;;;;;;;33.63;11.43;;;;;;;2.05;69.75;97143.31;4862924;29;20025;-49
2021/11/29 13:08:58;;;;;;;35.58;11.23;;;;;;;2.16;69.67;97154.84;4863884;29;20049;-53
2021/11/29 13:11:28;;;;;;;36.92;12.85;;;;;;;2.12;70.27;97152.44;4863353;29;20102;-50
2021/11/29 13:13:59;;;;;;;37.80;11.23;;;;;;;2.09;70.38;97160.34;4862533;29;20033;-55
2021/11/29 13:16:25;;;;;;;37.60;15.07;;;;;;;1.94;71.31;97158.56;4863470;29;20026;-55
2021/11/29 13:19:06;;;;;;;36.33;13.40;;;;;;;2.26;70.55;97158.66;4863335;29;20089;-51
2021/11/29 13:21:42;;;;;;;34.13;13.20;;;;;;;2.40;69.76;97161.34;4863087;29;20029;-54
2021/11/29 13:24:25;;;;;;;37.38;12.50;;;;;;;2.58;69.00;97160.41;4863146;29;20517;-49
2021/11/29 13:27:00;;;;;;;34.92;11.52;;;;;;;2.60;68.67;97162.88;4862889;29;20029;-50
2021/11/29 13:29:35;;;;;;;35.33;13.35;;;;;;;2.68;68.81;97146.94;4870276;29;20033;-55
2021/11/29 13:32:02;;;;;;;30.38;11.52;;;;;;;3.03;67.65;97161.41;4881585;29;20025;-53
2021/11/29 13:34:39;;;;;;;46.35;18.88;;;;;;;3.23;67.55;97159.47;4881042;29;20029;-49
2021/11/29 13:37:08;;;;;;;80.40;37.03;;;;;;;3.40;66.76;97159.34;4881150;29;20051;-50
2021/11/29 13:39:39;;;;;;;34.33;13.68;;;;;;;3.45;65.93;97152.16;4879515;29;20029;-49
2021/11/29 13:42:10;;;;;;;38.58;12.52;;;;;;;3.60;66.15;97160.81;4881306;29;20054;-49
2021/11/29 13:44:36;;;;;;;40.67;18.00;;;;;;;3.19;66.08;97160.56;4880497;29;20541;-48
2021/11/29 13:47:09;;;;;;;27.38;10.15;;;;;;;3.24;66.04;97171.53;4880602;29;20287;-52
2021/11/29 13:49:42;;;;;;;33.40;13.98;;;;;;;2.90;66.11;97168.19;4880586;29;20452;-52
2021/11/29 13:52:10;;;;;;;32.35;12.65;;;;;;;2.74;66.51;97175.94;4877331;29;20434;-51
2021/11/29 13:54:36;;;;;;;28.00;9.98;;;;;;;2.64;66.40;97186.88;4868341;29;20029;-53
2021/11/29 13:57:02;;;;;;;31.05;13.73;;;;;;;2.25;68.49;97195.78;4862315;29;20032;-53
2021/11/29 13:59:27;;;;;;;45.53;18.70;;;;;;;2.12;68.84;97199.00;4861646;29;20026;-50
2021/11/29 14:02:07;;;;;;;31.30;12.52;;;;;;;2.31;69.30;97208.44;4862761;29;20026;-52
2021/11/29 14:04:32;;;;;;;40.20;15.48;;;;;;;2.00;70.74;97209.97;4860743;29;20033;-51
2021/11/29 14:07:04;;;;;;;35.45;13.38;;;;;;;2.27;70.19;97215.50;4861445;29;20378;-50
2021/11/29 14:09:30;;;;;;;30.92;13.55;;;;;;;2.09;70.91;97214.66;4861716;29;20029;-54
2021/11/29 14:11:57;;;;;;;40.33;15.32;;;;;;;2.22;71.00;97214.06;4861469;29;20032;-55
2021/11/29 14:14:22;;;;;;;30.75;14.18;;;;;;;2.30;70.86;97217.91;4862206;29;20148;-51
2021/11/29 14:16:52;;;;;;;37.88;17.55;;;;;;;2.13;72.35;97226.56;4861238;29;20394;-50
2021/11/29 14:19:18;;;;;;;50.20;19.63;;;;;;;1.91;73.27;97231.09;4861542;29;20029;-49
2021/11/29 14:21:45;;;;;;;39.92;16.02;;;;;;;1.96;73.38;97221.38;4861480;29;20144;-51
2021/11/29 14:24:17;;;;;;;55.30;22.90;;;;;;;1.93;73.86;97229.28;4862194;29;20030;-51
2021/11/29 14:26:56;;;;;;;52.58;19.60;;;;;;;2.20;73.31;97226.22;4873158;29;20028;-51
2021/11/29 14:29:39;;;;;;;46.70;19.25;;;;;;;1.64;74.91;97223.78;4861149;29;20059;-53
2021/11/29 14:32:05;;;;;;;49.75;19.05;;;;;;;1.38;76.14;97219.03;4860056;29;20029;-53
2021/11/29 14:34:33;;;;;;;44.10;14.80;;;;;;;1.29;76.74;97222.88;4861190;29;20029;-54
2021/11/29 14:37:00;;;;;;;36.03;14.32;;;;;;;1.48;76.34;97220.28;4862116;29;20060;-54
2021/11/29 14:39:34;;;;;;;49.20;20.70;;;;;;;1.47;75.94;97228.09;4860999;29;20030;-52
2021/11/29 14:42:01;;;;;;;42.05;17.45;;;;;;;1.43;75.67;97222.22;4861685;29;20025;-49
2021/11/29 14:44:43;;;;;;;42.47;15.70;;;;;;;1.42;75.97;97228.31;4862003;29;20037;-52
2021/11/29 14:47:10;;;;;;;52.22;20.08;;;;;;;1.39;76.53;97244.78;4875431;29;20098;-53
2021/11/29 14:49:36;;;;;;;75.82;23.42;;;;;;;1.42;76.15;97249.00;4880509;29;20036;-51
2021/11/29 14:52:07;;;;;;;65.07;24.60;;;;;;;1.37;75.91;97248.34;4880313;29;20033;-53
2021/11/29 14:54:33;;;;;;;41.13;15.73;;;;;;;1.43;75.27;97251.50;4880080;29;20124;-51
2021/11/29 14:57:06;;;;;;;87.25;30.77;;;;;;;1.34;76.35;97257.09;4877992;29;20481;-49
2021/11/29 14:59:31;;;;;;;101.95;34.17;;;;;;;1.46;75.97;97255.69;4878247;29;20509;-54
2021/11/29 15:01:59;;;;;;;62.10;23.17;;;;;;;1.19;76.85;97260.38;4879541;29;20033;-52
2021/11/29 15:04:29;;;;;;;64.75;22.27;;;;;;;1.03;77.24;97257.66;4876843;29;20485;-50
2021/11/29 15:06:57;;;;;;;71.80;26.47;;;;;;;1.22;76.38;97269.75;4877226;29;20079;-47
2021/11/29 15:09:22;;;;;;;45.63;20.30;;;;;;;1.17;76.49;97267.34;4879185;29;20478;-49
2021/11/29 15:11:49;;;;;;;84.57;27.27;;;;;;;1.06;77.16;97270.44;4879285;29;20073;-51
2021/11/29 15:14:18;;;;;;;94.22;28.77;;;;;;;1.10;77.47;97271.13;4879203;29;20397;-53
2021/11/29 15:16:45;;;;;;;103.53;30.92;;;;;;;0.92;78.32;97272.78;4879182;29;20389;-50
2021/11/29 15:19:28;;;;;;;106.00;32.83;;;;;;;0.89;78.90;97275.50;4877461;29;20043;-50
2021/11/29 15:21:55;;;;;;;79.70;25.20;;;;;;;0.98;78.10;97282.84;4878327;29;20760;-52
2021/11/29 15:24:39;;;;;;;47.47;17.85;;;;;;;1.24;77.80;97291.16;4878674;29;20378;-54
2021/11/29 15:27:27;;;;;;;104.53;37.08;;;;;;;1.03;78.00;97275.72;4878580;29;20040;-51
2021/11/29 15:30:17;;;;;;;66.32;26.17;;;;;;;1.12;78.33;97283.06;4877122;29;20052;-48
2021/11/29 15:32:44;;;;;;;61.95;28.25;;;;;;;1.12;78.58;97288.22;4878880;29;20053;-49
2021/11/29 15:35:26;;;;;;;51.88;22.92;;;;;;;1.28;77.84;97290.97;4878164;29;20106;-52
2021/11/29 15:38:03;;;;;;;;;;;;;;;1.09;78.54;97297.88;4877303;29;20036;-48
2021/11/29 15:40:34;;;;;;;56.53;28.63;;;;;;;0.88;79.57;97302.25;4878463;29;19927;-52
2021/11/29 15:43:11;;;;;;;45.25;22.00;;;;;;;0.82;79.22;97307.66;4878654;29;20647;-52
2021/11/29 15:45:45;;;;;;;43.67;20.63;;;;;;;0.97;79.29;97313.94;4878565;29;20041;-52
2021/11/29 15:48:12;;;;;;;30.15;11.85;;;;;;;1.07;79.14;97313.44;4876855;29;20029;-52
2021/11/29 15:50:37;;;;;;;46.63;18.35;;;;;;;0.99;79.10;97325.84;4878456;29;20039;-49
2021/11/29 15:53:03;;;;;;;29.70;11.40;;;;;;;1.11;78.64;97322.72;4878240;29;20029;-51
2021/11/29 15:55:28;;;;;;;44.25;21.38;;;;;;;1.27;77.25;97327.19;4876615;29;20060;-49
2021/11/29 15:57:54;;;;;;;53.55;23.00;;;;;;;1.15;78.54;97332.00;4878506;29;20040;-48
2021/11/29 16:00:19;;;;;;;52.30;23.35;;;;;;;1.02;79.43;97340.38;4877362;29;20028;-49
2021/11/29 16:02:45;;;;;;;45.90;22.98;;;;;;;1.18;79.12;97343.97;4878202;29;20029;-49
2021/11/29 16:05:10;;;;;;;52.70;26.48;;;;;;;0.97;79.92;97343.16;4877985;29;20037;-48
2021/11/29 16:07:35;;;;;;;36.25;16.50;;;;;;;1.10;79.38;97344.31;4874831;29;20394;-49
2021/11/29 16:10:01;;;;;;;41.83;21.50;;;;;;;1.05;80.17;97346.22;4878259;29;20039;-52
2021/11/29 16:12:26;;;;;;;61.75;27.73;;;;;;;1.11;80.00;97358.88;4878047;29;20031;-50
2021/11/29 16:14:52;;;;;;;38.55;15.80;;;;;;;1.09;80.30;97360.69;4878026;29;20478;-52
2021/11/29 16:17:17;;;;;;;56.05;25.48;;;;;;;1.21;80.12;97358.50;4872774;29;20033;-49
2021/11/29 16:19:42;;;;;;;57.40;27.67;;;;;;;0.92;81.32;97368.31;4859429;29;20039;-53
2021/11/29 16:22:08;;;;;;;47.95;23.50;;;;;;;1.07;80.79;97362.50;4859231;29;20091;-52
2021/11/29 16:24:33;;;;;;;55.45;24.65;;;;;;;1.00;80.65;97355.94;4859042;29;20029;-52
2021/11/29 16:27:03;;;;;;;59.08;29.10;;;;;;;0.97;80.92;97368.97;4859179;29;20026;-52
2021/11/29 16:29:33;;;;;;;78.80;31.55;;;;;;;0.93;81.54;97357.13;4860138;29;20098;-52
2021/11/29 16:32:00;;;;;;;58.63;23.23;;;;;;;0.82;82.08;97372.22;4876664;29;20035;-53
2021/11/29 16:34:25;;;;;;;61.60;25.40;;;;;;;0.77;82.62;97374.16;4877572;29;20077;-50
2021/11/29 16:36:50;;;;;;;77.68;31.55;;;;;;;1.00;81.72;97368.84;4877699;29;20033;-49
2021/11/29 16:39:16;;;;;;;67.78;29.98;;;;;;;0.88;81.59;97380.53;4876039;29;20047;-50
2021/11/29 16:41:41;;;;;;;37.92;16.35;;;;;;;0.82;81.37;97383.38;4877956;29;20032;-53
2021/11/29 16:44:07;;;;;;;36.03;17.13;;;;;;;0.92;81.16;97389.81;4877478;29;20035;-51
2021/11/29 16:46:32;;;;;;;41.63;21.20;;;;;;;0.98;81.33;97386.16;4877709;29;20024;-53
2021/11/29 16:49:00;;;;;;;33.35;14.93;;;;;;;0.93;81.20;97385.53;4875995;29;20037;-54
2021/11/29 16:51:27;;;;;;;27.58;11.73;;;;;;;0.81;81.93;97383.44;4877492;29;20505;-52
2021/11/29 16:53:53;;;;;;;32.85;15.50;;;;;;;0.64;82.22;97385.00;4877523;29;20052;-53
2021/11/29 16:56:18;;;;;;;41.28;16.48;;;;;;;0.82;81.82;97388.53;4877699;29;20025;-53
2021/11/29 16:58:43;;;;;;;44.40;20.15;;;;;;;0.70;81.99;97392.47;4877573;29;20103;-50
2021/11/29 17:01:09;;;;;;;40.65;20.90;;;;;;;0.88;81.50;97397.78;4876192;29;20085;-55
2021/11/29 17:03:34;;;;;;;49.35;23.25;;;;;;;1.01;80.50;97404.09;4877303;29;20040;-56
2021/11/29 17:06:00;;;;;;;47.22;20.67;;;;;;;1.08;80.31;97405.50;4877316;29;20029;-54
2021/11/29 17:08:27;;;;;;;48.72;21.13;;;;;;;0.59;82.18;97412.75;4877215;29;20049;-53
2021/11/29 17:10:55;;;;;;;41.97;19.23;;;;;;;0.83;81.31;97412.63;4876180;29;20525;-51
2021/11/29 17:13:21;;;;;;;39.90;17.75;;;;;;;0.78;80.94;97412.81;4877327;29;20481;-50
2021/11/29 17:15:46;;;;;;;38.67;15.90;;;;;;;0.74;80.27;97400.09;4877500;29;20017;-54
2021/11/29 17:18:12;;;;;;;46.20;21.20;;;;;;;0.85;80.68;97421.97;4877523;29;20028;-54
2021/11/29 17:20:37;;;;;;;53.95;25.38;;;;;;;0.76;80.63;97412.06;4875967;29;20088;-52
2021/11/29 17:23:03;;;;;;;62.15;24.17;;;;;;;0.81;81.02;97427.34;4871214;29;20413;-49
2021/11/29 17:25:28;;;;;;;52.80;23.35;;;;;;;1.00;80.52;97423.09;4859224;29;20032;-52
2021/11/29 17:27:54;;;;;;;37.50;16.60;;;;;;;0.97;80.20;97428.38;4860267;29;20038;-53
2021/11/29 17:30:19;;;;;;;61.65;28.70;;;;;;;1.08;80.34;97423.59;4863276;29;20025;-52
2021/11/29 17:32:45;;;;;;;45.65;19.92;;;;;;;0.68;81.47;97433.00;4863633;29;20034;-53
2021/11/29 17:35:12;;;;;;;39.22;17.55;;;;;;;1.04;80.55;97429.78;4861034;29;20040;-51
2021/11/29 17:37:37;;;;;;;36.80;17.58;;;;;;;0.85;80.88;97439.22;4875701;29;20489;-52
2021/11/29 17:40:04;;;;;;;36.22;17.17;;;;;;;0.78;82.00;97445.53;4881274;29;20048;-55